Time;durP1;ratioP1;P1;durP2;ratioP2;P2;SDS_P1;SDS_P2;PMS_P1;PMS_P2;Temp;Humidity;BMP_temperature;BMP_pressure;BME280_temperature;BME280_humidity;BME280_pressure;Samples;Min_cycle;Max_cycle;Signal;HPM_P1;HPM_P2
2021/11/07 00:38:00;;;;;;;10.43;3.47;;;17.30;66.70;;;;;;5049204;27;20486;-78
2021/11/07 00:43:09;;;;;;;4.85;1.80;;;17.60;65.90;;;;;;5051018;28;20033;-78
2021/11/07 00:48:35;;;;;;;5.55;1.73;;;17.70;65.80;;;;;;5030025;28;20104;-77
2021/11/07 00:53:50;;;;;;;1.42;1.20;;;17.70;65.70;;;;;;5045377;28;20021;-78
2021/11/07 01:01:39;;;;;;;2.70;1.30;;;17.80;65.30;;;;;;5047472;28;20021;-79
2021/11/07 01:04:10;;;;;;;6.80;2.22;;;17.80;65.30;;;;;;5048157;28;20029;-79
2021/11/07 01:06:36;;;;;;;3.00;1.15;;;17.80;65.30;;;;;;5046006;28;20025;-79
2021/11/07 01:09:04;;;;;;;1.77;0.80;;;17.80;65.20;;;;;;5047982;28;20026;-78
2021/11/07 01:11:30;;;;;;;5.25;1.70;;;17.80;65.30;;;;;;5048756;28;20029;-76
2021/11/07 01:13:58;;;;;;;1.42;1.10;;;17.80;65.40;;;;;;5047778;28;20492;-78
2021/11/07 01:16:24;;;;;;;3.20;1.20;;;17.90;65.50;;;;;;5048943;28;20030;-78
2021/11/07 01:18:51;;;;;;;1.85;1.15;;;17.80;65.40;;;;;;5045993;28;20017;-78
2021/11/07 01:21:18;;;;;;;1.90;1.40;;;17.80;65.50;;;;;;5064813;28;20502;-78
2021/11/07 01:24:03;;;;;;;5.15;2.00;;;17.80;65.50;;;;;;5053651;28;20340;-76
2021/11/07 01:27:08;;;;;;;2.15;1.92;;;17.80;65.70;;;;;;5044885;28;20022;-78
2021/11/07 01:29:25;;;;;;;5.53;2.15;;;17.80;65.80;;;;;;5049292;28;20060;-79
2021/11/07 01:31:54;;;;;;;2.60;1.73;;;17.80;66.60;;;;;;5046355;28;20017;-79
2021/11/07 01:36:56;;;;;;;5.50;1.95;;;17.80;66.10;;;;;;5043242;28;20041;-78
2021/11/07 01:39:37;;;;;;;3.45;1.20;;;17.80;66.00;;;;;;5035772;28;20040;-77
2021/11/07 01:42:15;;;;;;;2.65;1.27;;;17.80;65.90;;;;;;5033403;28;20040;-78
2021/11/07 01:44:50;;;;;;;3.67;1.20;;;17.80;65.70;;;;;;5053359;28;20032;-78
2021/11/07 01:47:18;;;;;;;2.95;1.40;;;17.80;65.60;;;;;;5034882;28;20391;-77
2021/11/07 01:49:45;;;;;;;3.35;1.92;;;17.80;65.40;;;;;;5049430;28;20440;-77
2021/11/07 01:52:12;;;;;;;2.97;1.40;;;17.80;65.40;;;;;;5038834;28;20161;-78
2021/11/07 01:55:02;;;;;;;3.35;1.70;;;17.70;65.40;;;;;;5035408;28;20018;-78
2021/11/07 01:57:31;;;;;;;2.90;1.92;;;17.80;65.40;;;;;;5031650;28;20032;-78
2021/11/07 02:00:03;;;;;;;4.20;2.28;;;17.70;65.50;;;;;;5033759;28;20025;-79
2021/11/07 02:02:34;;;;;;;7.20;2.25;;;17.80;65.50;;;;;;5031958;28;20100;-79
2021/11/07 02:05:03;;;;;;;2.00;1.80;;;17.70;65.40;;;;;;5032517;28;20024;-77
2021/11/07 02:07:30;;;;;;;3.90;1.70;;;17.70;65.40;;;;;;5033725;28;20022;-78
2021/11/07 02:09:58;;;;;;;3.30;1.50;;;17.70;65.60;;;;;;5032592;28;20021;-77
2021/11/07 02:12:24;;;;;;;5.82;1.45;;;17.70;65.80;;;;;;5035993;28;20025;-77
2021/11/07 02:14:51;;;;;;;2.40;1.50;;;17.70;65.70;;;;;;5032690;28;20516;-78
2021/11/07 02:17:17;;;;;;;2.25;1.50;;;17.70;65.80;;;;;;5036589;28;20021;-77
2021/11/07 02:19:46;;;;;;;3.58;1.27;;;17.70;65.70;;;;;;5033212;28;20344;-78
2021/11/07 02:22:14;;;;;;;4.22;2.20;;;17.60;65.80;;;;;;5034652;28;20376;-77
2021/11/07 02:24:41;;;;;;;4.30;1.70;;;17.60;65.90;;;;;;5045162;28;20426;-78
2021/11/07 02:27:09;;;;;;;4.65;1.65;;;17.60;66.10;;;;;;5037475;28;20124;-78
2021/11/07 02:29:38;;;;;;;1.77;1.30;;;17.60;66.10;;;;;;5040267;28;20071;-78
2021/11/07 02:32:05;;;;;;;1.95;1.38;;;17.60;66.20;;;;;;5032982;28;20060;-78
2021/11/07 02:34:33;;;;;;;5.00;1.50;;;17.60;66.30;;;;;;5029492;28;20024;-79
2021/11/07 02:37:01;;;;;;;4.28;1.55;;;17.60;66.30;;;;;;5032782;28;20514;-78
2021/11/07 02:39:28;;;;;;;5.47;1.85;;;17.60;66.20;;;;;;5034472;28;20423;-78
2021/11/07 02:41:55;;;;;;;4.72;1.58;;;17.60;65.80;;;;;;5051757;28;20018;-78
2021/11/07 02:44:28;;;;;;;4.10;1.15;;;17.60;65.40;;;;;;5035430;28;20028;-78
2021/11/07 02:46:55;;;;;;;3.15;1.83;;;17.60;65.30;;;;;;5032460;28;20029;-80
2021/11/07 02:49:23;;;;;;;6.78;2.33;;;17.60;65.10;;;;;;5048459;28;20029;-78
2021/11/07 02:51:50;;;;;;;4.07;2.20;;;17.60;65.10;;;;;;5029761;28;20025;-79
2021/11/07 02:54:17;;;;;;;8.30;2.25;;;17.60;64.90;;;;;;5031249;28;20447;-79
2021/11/07 02:56:44;;;;;;;5.93;2.40;;;17.60;65.00;;;;;;5035132;28;20105;-77
2021/11/07 02:59:21;;;;;;;3.55;2.20;;;17.60;65.10;;;;;;5033893;28;20028;-77
2021/11/07 03:01:48;;;;;;;5.65;2.65;;;17.60;65.00;;;;;;5030065;28;20553;-78
2021/11/07 03:04:15;;;;;;;6.57;3.33;;;17.60;65.20;;;;;;5033933;28;20026;-78
2021/11/07 03:06:43;;;;;;;7.60;2.95;;;17.50;65.00;;;;;;5031990;28;20037;-79
2021/11/07 03:09:30;;;;;;;12.45;4.85;;;17.50;65.10;;;;;;5035901;28;20026;-79
2021/11/07 03:11:57;;;;;;;13.82;5.93;;;17.50;65.30;;;;;;5046258;28;20025;-78
2021/11/07 03:14:27;;;;;;;10.35;5.40;;;17.50;65.30;;;;;;5031968;28;20371;-78
2021/11/07 03:16:55;;;;;;;10.70;5.65;;;17.50;65.10;;;;;;5031793;28;20100;-78
2021/11/07 03:19:24;;;;;;;11.70;6.63;;;17.50;65.00;;;;;;5034900;28;20018;-78
2021/11/07 03:21:54;;;;;;;12.40;7.00;;;17.50;64.70;;;;;;5033418;28;20612;-78
2021/11/07 03:24:21;;;;;;;15.10;7.75;;;17.50;64.50;;;;;;5029727;28;20025;-78
2021/11/07 03:26:48;;;;;;;10.85;6.60;;;17.60;64.50;;;;;;5031074;28;20037;-79
2021/11/07 03:29:16;;;;;;;8.77;7.28;;;17.60;64.40;;;;;;5032288;28;20070;-79
2021/11/07 03:31:51;;;;;;;12.05;6.18;;;17.60;64.40;;;;;;5031742;28;20016;-79
2021/11/07 03:34:31;;;;;;;20.17;14.05;;;17.60;64.50;;;;;;5026980;28;20028;-81
2021/11/07 03:37:01;;;;;;;22.98;14.18;;;17.60;64.60;;;;;;5033942;28;20054;-79
2021/11/07 03:39:30;;;;;;;8.52;5.22;;;17.60;64.30;;;;;;5030267;28;20017;-79
2021/11/07 03:41:56;;;;;;;9.18;4.75;;;17.60;64.30;;;;;;5031073;28;20025;-80
2021/11/07 03:44:24;;;;;;;7.18;3.88;;;17.60;64.40;;;;;;5050445;28;20070;-79
2021/11/07 03:46:54;;;;;;;6.78;3.42;;;17.60;64.50;;;;;;5033304;28;20029;-81
2021/11/07 03:49:21;;;;;;;7.80;3.95;;;17.60;64.70;;;;;;5033142;28;20022;-82
2021/11/07 03:51:49;;;;;;;6.53;4.45;;;17.50;64.80;;;;;;5032666;28;20468;-82
2021/11/07 03:54:18;;;;;;;6.40;4.07;;;17.50;64.90;;;;;;5030554;28;20028;-76
2021/11/07 03:56:45;;;;;;;8.95;4.30;;;17.50;65.20;;;;;;5033333;28;20021;-77
2021/11/07 03:59:11;;;;;;;5.75;2.80;;;17.50;65.60;;;;;;5031947;28;20040;-70
2021/11/07 04:01:38;;;;;;;4.88;2.90;;;17.50;65.80;;;;;;5029709;28;20032;-73
2021/11/07 04:04:06;;;;;;;27.50;19.08;;;17.50;65.70;;;;;;5028809;28;20021;-73
2021/11/07 04:07:12;;;;;;;9.38;5.35;;;17.50;65.70;;;;;;5028180;28;20056;-74
2021/11/07 04:10:18;;;;;;;4.57;2.00;;;17.50;65.60;;;;;;5028962;28;20029;-77
2021/11/07 04:13:24;;;;;;;5.53;3.45;;;17.40;65.40;;;;;;5026345;28;20475;-81
2021/11/07 04:16:31;;;;;;;4.50;2.15;;;17.50;65.50;;;;;;5028720;28;20543;-80
2021/11/07 04:19:37;;;;;;;4.07;2.42;;;17.50;66.30;;;;;;5027739;28;20025;-78
2021/11/07 04:22:43;;;;;;;5.30;1.77;;;17.50;65.20;;;;;;5029758;28;20033;-79
2021/11/07 04:25:49;;;;;;;5.10;1.67;;;17.50;64.80;;;;;;5030335;28;20079;-80
2021/11/07 04:28:55;;;;;;;1.73;1.33;;;17.50;64.40;;;;;;5022834;28;20035;-76
2021/11/07 04:32:01;;;;;;;4.50;1.58;;;17.60;64.30;;;;;;5030689;28;20063;-75
2021/11/07 04:35:07;;;;;;;2.10;1.00;;;17.60;64.00;;;;;;5029084;28;20097;-75
2021/11/07 04:38:13;;;;;;;2.40;1.10;;;17.60;63.90;;;;;;5028501;28;20045;-73
2021/11/07 04:41:21;;;;;;;3.75;1.00;;;17.70;64.20;;;;;;5027893;28;20121;-74
2021/11/07 04:44:27;;;;;;;2.92;1.42;;;17.70;63.90;;;;;;5029502;28;20029;-71
2021/11/07 04:47:33;;;;;;;2.95;1.10;;;17.70;63.90;;;;;;5028309;28;20108;-70
2021/11/07 04:50:39;;;;;;;15.30;10.93;;;17.70;64.00;;;;;;5030546;28;20079;-71
2021/11/07 04:53:48;;;;;;;5.28;1.60;;;17.70;64.20;;;;;;5027647;28;20022;-73
2021/11/07 04:56:55;;;;;;;4.47;1.30;;;17.70;64.00;;;;;;5025396;28;20356;-74
2021/11/07 05:00:01;;;;;;;3.20;1.33;;;17.70;64.00;;;;;;5028175;28;20036;-77
2021/11/07 05:03:07;;;;;;;1.88;0.90;;;17.80;64.10;;;;;;5027672;28;20029;-72
2021/11/07 05:05:34;;;;;;;4.68;1.00;;;17.80;64.10;;;;;;5026358;28;20033;-76
2021/11/07 05:08:01;;;;;;;4.47;1.67;;;17.80;64.20;;;;;;5026079;28;20029;-73
2021/11/07 05:10:28;;;;;;;14.43;9.95;;;17.80;64.30;;;;;;5027586;28;20028;-75
2021/11/07 05:12:55;;;;;;;11.55;5.75;;;17.90;64.30;;;;;;5030201;28;20022;-76
2021/11/07 05:15:22;;;;;;;9.93;2.13;;;17.90;64.20;;;;;;5031302;28;20013;-72
2021/11/07 05:17:50;;;;;;;4.28;1.52;;;17.90;64.00;;;;;;5030541;28;20017;-72
2021/11/07 05:20:16;;;;;;;6.13;1.48;;;17.90;63.80;;;;;;5030432;28;20029;-74
2021/11/07 05:22:43;;;;;;;5.05;1.70;;;18.00;64.10;;;;;;5032028;28;20108;-70
2021/11/07 05:25:12;;;;;;;3.47;1.30;;;18.00;64.70;;;;;;5029037;28;20036;-74
2021/11/07 05:27:39;;;;;;;9.13;2.03;;;18.00;65.10;;;;;;5030598;28;20033;-72
2021/11/07 05:30:09;;;;;;;3.42;1.17;;;18.00;65.20;;;;;;5029890;28;20124;-74
2021/11/07 05:32:35;;;;;;;3.83;1.10;;;18.00;64.90;;;;;;5030449;28;20017;-75
2021/11/07 05:35:03;;;;;;;3.70;1.50;;;18.10;65.00;;;;;;5030000;28;20522;-74
2021/11/07 05:37:29;;;;;;;10.90;6.85;;;18.10;64.70;;;;;;5029334;28;20032;-70
2021/11/07 05:39:56;;;;;;;48.10;33.72;;;18.10;64.50;;;;;;5031115;28;20027;-78
2021/11/07 05:42:23;;;;;;;23.50;12.25;;;18.10;64.20;;;;;;5027486;28;20026;-74
2021/11/07 05:44:50;;;;;;;7.15;1.60;;;18.20;64.00;;;;;;5031290;28;20039;-76
2021/11/07 05:47:17;;;;;;;2.33;1.20;;;18.30;63.70;;;;;;5028556;28;20042;-81
2021/11/07 05:49:44;;;;;;;7.57;1.55;;;18.30;63.20;;;;;;5030517;28;20071;-77
2021/11/07 05:52:11;;;;;;;3.92;1.27;;;18.30;63.10;;;;;;5027686;28;20140;-78
2021/11/07 05:54:37;;;;;;;4.65;0.80;;;18.30;63.00;;;;;;5028548;28;20044;-77
2021/11/07 05:57:06;;;;;;;5.28;1.25;;;18.30;63.10;;;;;;5031055;28;20033;-78
2021/11/07 05:59:34;;;;;;;3.25;1.25;;;18.30;63.10;;;;;;5029832;28;20103;-77
2021/11/07 06:02:00;;;;;;;5.22;2.03;;;18.30;63.00;;;;;;5028072;28;20030;-80
2021/11/07 06:04:27;;;;;;;2.53;1.52;;;18.30;62.50;;;;;;5029282;28;20643;-77
2021/11/07 09:01:17;;;;;;;4.00;1.75;;;20.80;54.50;;;;;;6342340;22;20075;-74
2021/11/07 09:06:24;;;;;;;7.28;1.80;;;20.80;55.00;;;;;;6338699;22;20009;-75
2021/11/07 09:08:52;;;;;;;1.45;1.10;;;20.80;55.20;;;;;;6339865;22;20329;-73
2021/11/07 09:11:22;;;;;;;2.42;1.23;;;20.70;54.70;;;;;;6339482;22;19995;-74
2021/11/07 09:13:48;;;;;;;0.70;0.70;;;20.80;54.60;;;;;;6342075;22;20032;-75
2021/11/07 09:16:15;;;;;;;3.60;1.02;;;20.90;55.10;;;;;;6340038;22;20021;-73
2021/11/07 09:18:43;;;;;;;13.07;8.80;;;20.90;54.80;;;;;;6341651;22;20026;-71
2021/11/07 09:21:15;;;;;;;8.70;5.82;;;20.90;54.50;;;;;;6342253;22;19994;-72
2021/11/07 09:23:47;;;;;;;2.92;1.60;;;21.00;54.90;;;;;;6340301;22;20026;-68
2021/11/07 09:36:31;;;;;;;3.95;1.33;;;21.40;53.90;;;;;;6334355;22;20019;-73
2021/11/07 09:41:39;;;;;;;5.45;0.90;;;21.40;52.80;;;;;;6333646;22;20001;-76
2021/11/07 09:44:08;;;;;;;2.55;0.93;;;21.40;52.60;;;;;;6333714;22;20056;-68
2021/11/07 09:49:19;;;;;;;6.10;0.95;;;21.40;51.80;;;;;;6333153;22;20530;-75
2021/11/07 09:52:00;;;;;;;2.42;0.60;;;21.30;51.20;;;;;;6332663;22;20010;-76
2021/11/07 09:54:29;;;;;;;16.92;11.13;;;21.30;51.40;;;;;;6333580;22;20032;-75
2021/11/07 09:56:57;;;;;;;5.25;2.53;;;21.30;51.90;;;;;;6334706;22;19998;-75
2021/11/07 09:59:25;;;;;;;1.13;1.02;;;21.20;52.50;;;;;;6334055;22;20523;-72
2021/11/07 10:02:02;;;;;;;5.85;3.50;;;21.20;52.50;;;;;;6334909;22;19999;-77
2021/11/07 10:04:32;;;;;;;4.25;2.50;;;21.20;52.40;;;;;;6334555;22;20002;-75
2021/11/07 10:07:27;;;;;;;6.57;1.83;;;21.10;52.50;;;;;;6333872;22;19998;-73
2021/11/07 10:09:57;;;;;;;2.03;1.00;;;21.00;52.40;;;;;;6335104;22;19999;-73
2021/11/07 10:12:36;;;;;;;3.70;1.08;;;21.00;52.20;;;;;;6332998;22;20065;-77
2021/11/07 10:15:07;;;;;;;2.92;1.30;;;21.00;53.00;;;;;;6334765;22;20483;-75
2021/11/07 10:17:40;;;;;;;4.38;2.55;;;21.10;53.40;;;;;;6334717;22;19999;-76
2021/11/07 10:20:27;;;;;;;2.55;1.20;;;21.20;53.50;;;;;;6333807;22;20003;-75
2021/11/07 10:23:06;;;;;;;2.55;0.90;;;21.30;52.50;;;;;;6335298;22;20355;-75
2021/11/07 10:25:53;;;;;;;2.45;1.02;;;21.50;52.20;;;;;;6334108;22;20429;-75
2021/11/07 10:28:29;;;;;;;4.43;1.10;;;21.50;51.90;;;;;;6334020;22;19999;-68
2021/11/07 10:31:15;;;;;;;3.42;0.80;;;21.70;51.90;;;;;;6334879;22;20003;-68
2021/11/07 10:42:58;;;;;;;6.03;1.13;;;21.90;49.50;;;;;;6333386;22;20127;-69
2021/11/07 10:53:23;;;;;;;1.05;0.70;;;22.00;45.50;;;;;;6276017;22;20018;-68
2021/11/07 10:56:29;;;;;;;1.23;1.05;;;22.10;44.60;;;;;;6334362;22;20019;-68
2021/11/07 10:59:35;;;;;;;2.10;1.17;;;22.10;45.20;;;;;;6334102;22;20418;-68
2021/11/07 11:02:56;;;;;;;5.97;1.00;;;22.10;45.10;;;;;;6334694;22;20461;-68
2021/11/07 11:06:28;;;;;;;4.95;2.42;;;22.10;45.90;;;;;;6334131;22;20579;-68
2021/11/07 11:09:18;;;;;;;7.00;4.45;;;22.10;46.50;;;;;;6320210;22;20085;-68
2021/11/07 11:12:24;;;;;;;4.88;3.53;;;22.00;47.50;;;;;;6333298;22;20383;-70
2021/11/07 11:15:51;;;;;;;2.42;0.95;;;21.90;49.60;;;;;;6334015;22;20018;-68
2021/11/07 11:18:56;;;;;;;;;;;21.90;49.70;;;;;;6334906;22;19998;-68
2021/11/07 11:32:04;;;;;;;1.40;0.85;;;22.10;50.70;;;;;;6207995;23;20119;-68
2021/11/07 11:35:34;;;;;;;6.80;0.98;;;22.00;51.60;;;;;;6333185;22;20426;-71
2021/11/07 11:39:30;;;;;;;1.83;1.25;;;22.00;51.00;;;;;;6333106;22;19999;-71
2021/11/07 11:45:15;;;;;;;7.47;1.92;;;21.90;49.80;;;;;;6334411;22;20013;-66
2021/11/07 11:47:54;;;;;;;9.65;3.22;;;21.90;49.70;;;;;;6332431;22;20099;-66
2021/11/07 11:57:25;;;;;;;6.90;3.50;;;22.20;48.80;;;;;;6334427;22;20025;-68
2021/11/07 12:06:47;;;;;;;4.68;2.22;;;22.30;49.20;;;;;;6334695;22;20049;-68
2021/11/07 12:09:44;;;;;;;1.35;1.23;;;22.30;49.00;;;;;;6333120;22;20010;-68
2021/11/07 12:12:55;;;;;;;2.00;1.13;;;22.30;48.10;;;;;;6334628;22;19999;-68
2021/11/07 12:16:10;;;;;;;2.15;0.80;;;22.30;48.10;;;;;;6335195;22;20007;-69
2021/11/07 12:19:32;;;;;;;3.08;1.10;;;22.30;49.00;;;;;;6334705;22;20005;-70
2021/11/07 12:22:39;;;;;;;3.30;0.75;;;22.30;48.90;;;;;;6177524;23;20011;-68
2021/11/07 12:25:45;;;;;;;1.98;0.50;;;22.40;48.20;;;;;;6334771;22;20062;-68
2021/11/07 12:29:00;;;;;;;2.25;1.55;;;22.50;47.90;;;;;;6334480;22;20003;-66
2021/11/07 12:32:18;;;;;;;2.72;1.38;;;22.60;47.10;;;;;;6334134;22;20045;-67
2021/11/07 12:34:58;;;;;;;4.85;1.70;;;22.60;47.60;;;;;;6332062;22;20334;-69
2021/11/07 12:41:14;;;;;;;3.95;2.38;;;23.00;46.60;;;;;;6334269;22;20098;-67
2021/11/07 12:43:46;;;;;;;3.90;1.00;;;23.10;45.90;;;;;;6333062;22;20003;-68
2021/11/07 12:46:33;;;;;;;1.08;0.82;;;23.20;45.70;;;;;;6335225;22;20003;-72
2021/11/07 12:49:26;;;;;;;1.60;1.00;;;23.20;45.50;;;;;;6335045;22;20010;-69
2021/11/07 12:51:57;;;;;;;1.13;0.80;;;23.30;45.70;;;;;;6305801;22;20011;-68
2021/11/07 12:54:24;;;;;;;2.63;0.75;;;23.30;45.50;;;;;;6334853;22;20014;-70
2021/11/07 12:57:05;;;;;;;2.80;0.95;;;23.30;46.00;;;;;;6333942;22;19999;-69
2021/11/07 12:59:37;;;;;;;2.25;0.80;;;23.30;46.00;;;;;;6335054;22;20006;-68
2021/11/07 13:02:21;;;;;;;3.40;0.60;;;23.20;46.40;;;;;;6335828;22;20022;-72
2021/11/07 13:05:51;;;;;;;1.95;0.50;;;23.20;47.20;;;;;;6335567;22;20011;-68
2021/11/07 13:08:42;;;;;;;2.80;0.73;;;23.10;47.70;;;;;;6323421;22;20009;-69
2021/11/07 13:11:53;;;;;;;3.35;0.63;;;23.00;47.10;;;;;;6309042;22;20329;-68
2021/11/07 13:23:49;;;;;;;0.63;0.38;;;22.80;47.20;;;;;;6335744;22;20010;-69
2021/11/07 13:29:39;;;;;;;3.53;0.98;;;22.80;46.00;;;;;;6337232;22;20007;-68
2021/11/07 13:34:33;;;;;;;3.92;1.08;;;23.00;46.50;;;;;;6334984;22;20007;-68
2021/11/07 13:37:03;;;;;;;1.92;0.70;;;23.00;47.50;;;;;;6335445;22;20426;-68
2021/11/07 13:39:33;;;;;;;1.38;0.57;;;23.10;47.00;;;;;;6334638;22;20434;-72
2021/11/07 13:42:11;;;;;;;5.63;1.95;;;23.20;46.40;;;;;;6335996;22;19999;-71
2021/11/07 13:45:02;;;;;;;2.92;1.15;;;23.20;46.40;;;;;;6333457;22;20389;-72
2021/11/07 13:47:39;;;;;;;2.50;1.15;;;23.30;45.90;;;;;;6308132;22;20426;-69
2021/11/07 13:50:11;;;;;;;4.22;0.70;;;23.30;46.10;;;;;;6336312;22;20002;-69
2021/11/07 13:52:40;;;;;;;0.80;0.40;;;23.30;46.20;;;;;;6335118;22;20021;-69
2021/11/07 13:55:19;;;;;;;6.45;2.50;;;23.30;46.70;;;;;;6335309;22;19994;-69
2021/11/07 13:57:46;;;;;;;6.82;1.70;;;23.30;46.40;;;;;;6334243;22;20002;-72
2021/11/07 14:00:52;;;;;;;5.80;2.90;;;23.20;46.40;;;;;;6335548;22;20299;-73
2021/11/07 14:04:02;;;;;;;1.98;1.48;;;23.20;46.60;;;;;;6335860;22;19998;-70
2021/11/07 14:07:11;;;;;;;1.63;1.10;;;23.10;45.40;;;;;;6334604;22;20052;-72
2021/11/07 14:10:32;;;;;;;3.97;0.68;;;23.00;46.10;;;;;;6307345;22;20041;-70
2021/11/07 14:13:39;;;;;;;2.67;0.90;;;23.00;47.40;;;;;;6336002;22;20317;-72
2021/11/07 14:16:51;;;;;;;4.13;1.08;;;23.10;47.60;;;;;;6308393;22;20002;-73
2021/11/07 14:19:57;;;;;;;4.45;0.90;;;23.00;46.90;;;;;;6334734;22;20010;-68
2021/11/07 14:22:46;;;;;;;;;;;23.10;44.60;;;;;;6333729;22;20006;-70
2021/11/07 14:25:53;;;;;;;2.42;0.90;;;23.00;45.30;;;;;;6335903;22;19970;-69
2021/11/07 14:32:28;;;;;;;1.58;0.70;;;22.90;46.00;;;;;;6332815;22;20110;-72
2021/11/07 14:35:07;;;;;;;2.42;0.80;;;22.90;46.10;;;;;;6335456;22;19999;-69
2021/11/07 14:38:22;;;;;;;2.30;0.80;;;22.90;46.40;;;;;;6335306;22;19999;-69
2021/11/07 14:41:58;;;;;;;0.60;0.40;;;22.90;46.70;;;;;;6334509;22;20060;-74
2021/11/07 14:47:53;;;;;;;;;;;22.90;44.60;;;;;;6336248;22;20011;-68
2021/11/07 14:56:30;;;;;;;3.22;0.57;;;22.80;46.30;;;;;;6332041;22;20018;-72
2021/11/07 15:00:05;;;;;;;4.15;0.70;;;22.70;46.30;;;;;;6331331;22;20010;-70
2021/11/07 15:02:03;;;;;;;0.75;0.22;;;22.60;47.50;;;;;;6310728;22;20405;-71
2021/11/07 15:04:53;;;;;;;2.53;0.32;;;22.60;47.40;;;;;;6331485;22;20038;-76
2021/11/07 15:07:33;;;;;;;7.20;0.93;;;22.60;47.20;;;;;;6332912;22;19998;-75
2021/11/07 15:18:53;;;;;;;1.15;0.40;;;22.50;45.80;;;;;;6300476;22;20330;-73
2021/11/07 15:24:41;;;;;;;2.65;0.75;;;22.50;48.20;;;;;;6332594;22;20014;-74
2021/11/07 15:27:14;;;;;;;0.57;0.40;;;22.50;48.10;;;;;;6304500;22;20007;-69
2021/11/07 15:29:55;;;;;;;1.52;0.30;;;22.50;48.40;;;;;;6333428;22;20010;-71
2021/11/07 15:32:29;;;;;;;1.58;0.30;;;22.50;47.10;;;;;;6331988;22;19999;-71
2021/11/07 15:34:56;;;;;;;2.65;0.30;;;22.40;47.50;;;;;;6333613;22;20002;-70
2021/11/07 15:37:27;;;;;;;2.05;0.50;;;22.30;48.40;;;;;;6332506;22;19999;-72
2021/11/07 15:39:56;;;;;;;2.55;0.38;;;22.30;48.60;;;;;;6334184;22;19999;-68
2021/11/07 15:43:03;;;;;;;0.73;0.43;;;22.20;48.70;;;;;;6333933;22;20613;-71
2021/11/07 15:45:57;;;;;;;;;;;22.20;49.00;;;;;;6332911;22;20318;-75
2021/11/07 15:49:03;;;;;;;1.08;0.50;;;22.10;49.30;;;;;;6334161;22;19920;-75
2021/11/07 15:52:36;;;;;;;1.85;0.32;;;22.10;49.60;;;;;;6334268;22;20002;-68
2021/11/07 15:55:40;;;;;;;1.67;0.67;;;21.90;49.40;;;;;;6332199;22;20602;-73
2021/11/07 15:59:05;;;;;;;3.22;0.75;;;21.90;50.00;;;;;;6333316;22;19999;-68
2021/11/07 16:02:19;;;;;;;14.48;11.45;;;21.80;49.80;;;;;;6332935;22;20053;-74
2021/11/07 16:09:43;;;;;;;3.15;0.63;;;21.70;51.30;;;;;;6331133;22;20007;-68
2021/11/07 16:12:22;;;;;;;3.28;0.68;;;21.60;51.90;;;;;;6304141;22;20015;-70
2021/11/07 16:15:44;;;;;;;1.77;1.23;;;21.60;52.50;;;;;;6333920;22;19995;-69
2021/11/07 16:18:51;;;;;;;3.30;1.20;;;21.60;53.20;;;;;;6333872;22;20021;-72
2021/11/07 16:21:57;;;;;;;3.42;0.90;;;21.50;53.80;;;;;;6333699;22;20140;-70
2021/11/07 16:25:06;;;;;;;1.55;0.88;;;21.50;54.10;;;;;;6331750;22;20018;-72
2021/11/07 16:28:12;;;;;;;2.45;1.10;;;21.50;53.90;;;;;;6334015;22;20132;-75
2021/11/07 16:31:24;;;;;;;3.42;1.20;;;21.40;54.20;;;;;;6332262;22;20022;-75
2021/11/07 16:33:53;;;;;;;3.03;0.70;;;21.50;54.40;;;;;;6331217;22;20121;-78
2021/11/07 16:36:29;;;;;;;1.27;0.40;;;21.50;54.10;;;;;;6332590;22;19999;-75
2021/11/07 16:39:01;;;;;;;2.25;0.50;;;21.40;53.80;;;;;;6334507;22;20425;-70
2021/11/07 16:41:45;;;;;;;4.47;0.90;;;21.40;53.30;;;;;;6333873;22;20083;-77
2021/11/07 16:44:13;;;;;;;0.55;0.50;;;21.30;53.60;;;;;;6335028;22;20006;-70
2021/11/07 16:46:47;;;;;;;3.40;0.57;;;21.10;54.00;;;;;;6333157;22;20046;-68
2021/11/07 16:49:17;;;;;;;2.30;0.63;;;21.00;54.20;;;;;;6334259;22;20078;-70
2021/11/07 16:54:27;;;;;;;3.97;2.10;;;20.90;54.10;;;;;;6333439;22;20011;-66
2021/11/07 16:56:55;;;;;;;6.13;1.00;;;20.90;54.20;;;;;;6334609;22;20005;-70
2021/11/07 17:04:48;;;;;;;2.40;0.52;;;20.80;54.00;;;;;;6333457;22;20014;-74
2021/11/07 17:09:45;;;;;;;1.27;0.40;;;20.80;54.10;;;;;;6334861;22;20007;-68
2021/11/07 17:12:19;;;;;;;1.33;0.82;;;20.70;54.30;;;;;;6333021;22;19998;-75
2021/11/07 17:14:49;;;;;;;3.65;0.80;;;20.70;54.10;;;;;;6334417;22;19998;-69
2021/11/07 17:17:19;;;;;;;2.67;0.80;;;20.70;54.60;;;;;;6333471;22;20002;-74
2021/11/07 17:22:37;;;;;;;1.23;0.55;;;20.60;55.00;;;;;;6334954;22;20105;-66
2021/11/07 17:25:08;;;;;;;3.22;0.63;;;20.50;54.80;;;;;;6332933;22;20014;-71
2021/11/07 17:30:20;;;;;;;12.45;8.85;;;20.50;55.50;;;;;;6333892;22;20052;-74
2021/11/07 17:32:52;;;;;;;5.10;2.72;;;20.40;55.50;;;;;;6334368;22;20009;-71
2021/11/07 17:35:33;;;;;;;5.28;1.17;;;20.30;56.10;;;;;;6334608;22;19995;-71
2021/11/07 17:38:11;;;;;;;5.68;1.10;;;20.30;56.60;;;;;;6333173;22;20002;-78
2021/11/07 17:56:44;;;;;;;4.07;1.80;;;20.40;58.20;;;;;;6333741;22;20334;-70
2021/11/07 17:59:11;;;;;;;5.30;0.90;;;20.40;58.20;;;;;;6334445;22;20526;-68
2021/11/07 18:01:39;;;;;;;1.45;1.00;;;20.40;58.30;;;;;;6335402;22;19994;-69
2021/11/07 18:04:05;;;;;;;3.03;0.95;;;20.40;58.50;;;;;;6333886;22;20030;-68
2021/11/07 18:06:38;;;;;;;9.85;1.13;;;20.40;58.50;;;;;;6335162;22;19998;-70
2021/11/07 18:09:51;;;;;;;2.28;0.90;;;20.30;58.80;;;;;;6331900;22;20414;-69
2021/11/07 18:12:59;;;;;;;18.92;1.95;;;20.30;58.70;;;;;;6331489;22;20036;-68
2021/11/07 18:16:05;;;;;;;4.72;1.15;;;20.30;59.10;;;;;;6330854;22;20070;-71
2021/11/07 18:19:09;;;;;;;3.17;1.77;;;20.20;59.10;;;;;;6329788;22;20005;-72
2021/11/07 18:21:59;;;;;;;5.70;0.90;;;20.20;59.20;;;;;;6302433;22;20661;-79
2021/11/07 18:24:28;;;;;;;1.80;1.20;;;20.20;59.40;;;;;;6328782;22;20017;-69
2021/11/07 18:26:56;;;;;;;1.70;0.77;;;20.10;59.60;;;;;;6330082;22;20007;-71
2021/11/07 18:29:23;;;;;;;3.08;0.85;;;20.10;59.80;;;;;;6330462;22;19998;-69
2021/11/07 18:31:50;;;;;;;2.00;1.05;;;20.00;60.00;;;;;;6330806;22;20067;-69
2021/11/07 18:34:16;;;;;;;3.20;0.93;;;20.00;60.00;;;;;;6329452;22;20040;-69
2021/11/07 18:36:43;;;;;;;1.60;1.38;;;20.00;59.90;;;;;;6330811;22;20543;-72
2021/11/07 18:39:13;;;;;;;2.97;0.98;;;20.00;60.10;;;;;;6329660;22;19999;-69
2021/11/07 18:41:40;;;;;;;3.83;1.13;;;19.90;59.70;;;;;;6331438;22;20082;-72
2021/11/07 18:44:07;;;;;;;1.92;1.20;;;19.90;59.60;;;;;;6330104;22;20030;-68
2021/11/07 18:46:34;;;;;;;5.85;1.13;;;19.90;59.50;;;;;;6331398;22;20376;-68
2021/11/07 18:49:01;;;;;;;5.30;1.80;;;19.90;59.50;;;;;;6331052;22;19998;-69
2021/11/07 18:51:29;;;;;;;2.30;0.90;;;19.90;59.40;;;;;;6330057;22;20015;-68
2021/11/07 18:53:56;;;;;;;3.70;1.45;;;19.90;59.40;;;;;;6331157;22;19998;-71
2021/11/07 18:56:23;;;;;;;2.75;1.15;;;19.90;59.40;;;;;;6329885;22;20430;-68
2021/11/07 18:58:50;;;;;;;2.83;1.10;;;19.80;59.40;;;;;;6330965;22;20313;-68
2021/11/07 19:01:18;;;;;;;2.75;1.38;;;19.80;59.40;;;;;;6329711;22;20003;-76
2021/11/07 19:03:44;;;;;;;2.67;1.05;;;19.80;59.50;;;;;;6331350;22;20034;-75
2021/11/07 19:06:11;;;;;;;1.77;0.90;;;19.80;59.60;;;;;;6330657;22;20034;-69
2021/11/07 19:08:37;;;;;;;3.58;1.02;;;19.70;59.60;;;;;;6330197;22;19998;-71
2021/11/07 19:11:04;;;;;;;5.50;1.35;;;19.70;59.80;;;;;;6303673;22;20015;-77
2021/11/07 19:13:30;;;;;;;1.75;0.75;;;19.70;59.70;;;;;;6330032;22;20053;-71
2021/11/07 19:15:57;;;;;;;1.83;0.75;;;19.70;60.00;;;;;;6331222;22;20064;-68
2021/11/07 19:18:24;;;;;;;2.60;0.73;;;19.70;59.90;;;;;;6329995;22;19999;-72
2021/11/07 19:20:50;;;;;;;3.95;1.15;;;19.60;59.80;;;;;;6331590;22;20120;-76
2021/11/07 19:23:17;;;;;;;2.97;0.98;;;19.60;59.90;;;;;;6330632;22;20048;-73
2021/11/07 19:25:43;;;;;;;6.47;1.20;;;19.60;60.00;;;;;;6330661;22;20094;-73
2021/11/07 19:28:10;;;;;;;31.40;28.02;;;19.60;60.10;;;;;;6330563;22;20109;-71
2021/11/07 19:30:37;;;;;;;19.73;13.00;;;19.60;60.20;;;;;;6329795;22;20052;-70
2021/11/07 19:33:06;;;;;;;7.07;4.05;;;19.60;60.10;;;;;;6331045;22;19995;-70
2021/11/07 19:35:38;;;;;;;1.08;0.88;;;19.60;59.70;;;;;;6330701;22;20078;-70
2021/11/07 19:38:06;;;;;;;2.53;1.30;;;19.60;59.50;;;;;;6332178;22;20003;-70
2021/11/07 19:40:37;;;;;;;2.20;0.60;;;19.60;59.40;;;;;;6332478;22;20523;-74
2021/11/07 19:43:05;;;;;;;2.03;0.98;;;19.60;59.30;;;;;;6332365;22;20358;-72
2021/11/07 19:45:32;;;;;;;1.55;0.80;;;19.60;59.30;;;;;;6332904;22;20007;-73
2021/11/07 19:48:04;;;;;;;2.88;0.60;;;19.60;59.50;;;;;;6332350;22;20006;-72
2021/11/07 19:50:33;;;;;;;2.05;1.27;;;19.60;59.50;;;;;;6333986;22;20018;-72
2021/11/07 19:53:01;;;;;;;1.42;0.73;;;19.60;59.50;;;;;;6332713;22;20102;-72
2021/11/07 19:55:30;;;;;;;1.17;0.40;;;19.60;59.70;;;;;;6333576;22;20545;-70
2021/11/07 19:57:57;;;;;;;1.15;0.77;;;19.70;59.60;;;;;;6305136;22;19994;-73
2021/11/07 20:05:51;;;;;;;2.25;0.52;;;19.70;59.20;;;;;;6332698;22;20010;-73